• Join FlightAware (Why Join?)
  • Login
  • US Flag 
02:40AM EDT


 

Airport Tracker/Info


-or-


 

Live Flight TrackerFlight Track Log ✈ DAL1018 ✈ 22-Jul-2013 ✈ KATL - KMSY

Flight Track Log - Related Links

Times and Time Zones

All times are in EDT time to prevent confusion due to time zone crossing. See the DAL1018 flight status page for this flight to view local times or setup timezone preferences in your user account.

Time Position Orientation Groundspeed Altitude Reporting Facility
EDT Latitude Longitude Course Direction KTS MPH feet Rate Location/Type
10:24AM 33.6500 -84.5000 234° Southwest 215 247 3,100  Level Atlanta TRACON
10:25AM 33.6667 -84.6000 281° West 259 298 5,800 2,700 Climbing Atlanta TRACON
10:26AM 33.8001 -84.3971 270° West  Level FlightAware Approximate
10:26AM 33.6833 -84.6833 284° West 271 312 8,600  Level Atlanta TRACON
10:27AM 33.8000 -84.5460 270° West  Level FlightAware Approximate
10:28AM 33.7393 -84.6717 234° Southwest  Level FlightAware Approximate
10:28AM 33.6369 -84.8922 255° West 304 350 13,300  Level Atlanta Center
10:29AM 33.6657 -84.7912 234° Southwest  Level FlightAware Approximate
10:29AM 33.5903 -84.9864 239° Southwest 318 366 15,400  Level Atlanta Center
10:30AM 33.5414 -85.0881 240° Southwest 341 392 17,500 1,860 Climbing Atlanta Center
10:31AM 33.4925 -85.1872 239° Southwest 354 407 19,200 1,500 Climbing Atlanta Center
10:32AM 33.4600 -85.3061 252° West 368 423 20,600 1,500 Climbing Atlanta Center
10:33AM 33.4358 -85.4303 257° West 382 440 22,200 1,320 Climbing Atlanta Center
10:35AM 33.3916 -85.6129 254° West  Level FlightAware Approximate
10:35AM 33.3889 -85.6708 254° West 390 449 24,700  Level Atlanta Center
10:36AM 33.3556 -85.8144 255° West 404 465 25,300 600 Climbing Atlanta Center
10:37AM 33.2994 -85.9450 243° Southwest 417 480 26,000 900 Climbing Atlanta Center
10:38AM 33.2039 -86.0447 221° Southwest 437 503 27,100 1,200 Climbing Atlanta Center
10:39AM 33.1022 -86.1442 219° Southwest 451 519 28,400 1,200 Climbing Atlanta Center
10:40AM 32.9981 -86.2383 217° Southwest 465 535 29,500 1,080 Climbing Atlanta Center
10:41AM 32.8983 -86.3397 220° Southwest 477 549 30,600 960 Climbing Atlanta Center
10:42AM 32.7961 -86.4333 218° Southwest 477 549 31,500 840 Climbing Atlanta Center
10:43AM 32.7006 -86.5269 220° Southwest 477 549 32,300 600 Climbing Atlanta Center
10:44AM 32.6067 -86.6156 218° Southwest 477 549 32,700 420 Climbing Atlanta Center
10:45AM 32.5044 -86.7136 219° Southwest 477 549 33,200 480 Climbing Atlanta Center
10:46AM 32.4000 -86.8136 219° Southwest 482 555 33,700 360 Climbing Atlanta Center
10:47AM 32.2997 -86.9089 219° Southwest 477 549 34,000 120 Climbing Atlanta Center
10:48AM 32.1972 -87.0061 219° Southwest 477 549 34,000  Level Atlanta Center
10:49AM 32.0906 -87.1033 218° Southwest 484 557 34,000  Level Atlanta Center
10:50AM 31.9900 -87.1978 219° Southwest 479 551 34,000  Level Atlanta Center
10:51AM 31.8853 -87.2942 218° Southwest 479 551 34,000  Level Atlanta Center
10:52AM 31.7803 -87.4003 221° Southwest 474 545 34,000  Level Atlanta Center
10:55AM 31.5358 -87.6175 217° Southwest 463 533 34,000  Level Houston Center
10:56AM 31.4356 -87.7103 218° Southwest 460 529 34,000  Level Houston Center
10:57AM 31.3383 -87.8081 221° Southwest 461 531 34,000  Level Houston Center
10:58AM 31.2558 -87.9228 230° Southwest 460 529 34,000  Level Houston Center
10:59AM 31.1722 -88.0369 229° Southwest 453 521 34,000  Level Houston Center
11:00AM 31.0892 -88.1506 230° Southwest 458 527 34,000 -900 Level Houston Center
11:01AM 30.9878 -88.2881 229° Southwest 467 537 32,200 -1,380 Descending Houston Center
11:02AM 30.9019 -88.4058 230° Southwest 474 545 31,200 -960 Descending Houston Center
11:03AM 30.8172 -88.5186 229° Southwest 464 534 30,300 -960 Descending Houston Center
11:04AM 30.7272 -88.6403 229° Southwest 461 531 29,300 -1,320 Descending Houston Center
11:05AM 30.6525 -88.7561 233° Southwest 448 516 27,600 -1,920 Descending Houston Center
11:06AM 30.5822 -88.8675 234° Southwest 432 497 25,400 -2,280 Descending Houston Center
11:07AM 30.5108 -88.9936 237° Southwest 417 480 23,000 -2,280 Descending Houston Center
11:08AM 30.4483 -89.0994 236° Southwest 400 460 20,800 -2,040 Descending Houston Center
11:09AM 30.3883 -89.2019 236° Southwest 386 444 18,800 -1,920 Descending Houston Center
11:10AM 30.3331 -89.3022 237° Southwest 373 429 16,800 -1,980 Descending Houston Center
11:11AM 30.2897 -89.3864 239° Southwest 356 410 15,300 -2,100 Descending Houston Center
11:12AM 30.2614 -89.4719 249° West 333 383 13,600 -1,860 Descending Houston Center
11:12AM 30.2483 -89.5022 243° Southwest 340 391 12,900 -1,920 Descending Houston Center
11:13AM 30.2211 -89.5703 245° Southwest 332 382 11,700 -1,980 Descending Houston Center
11:13AM 30.2025 -89.6183 246° West 330 380 10,900 -1,080 Descending Houston Center
11:14AM 30.1858 -89.7100 258° West 293 337 10,100 -1,260 Descending Houston Center
11:15AM 30.1761 -89.7975 263° West 275 316 8,300 -1,860 Descending Houston Center
11:16AM 30.1683 -89.8819 264° West 266 306 6,300 -1,680 Descending Houston Center
11:17AM 30.1589 -89.9644 262° West 261 300 4,900 -1,200 Descending Houston Center
11:18AM 30.1508 -90.0442 263° West 256 295 3,900 -1,020 Descending Houston Center
11:19AM 30.1264 -90.1086 246° West 232 267 2,800 -1,080 Descending Houston Center